EGLLEGCC

Guest
Details From EGLL - London Heathrow
To EGCC - Manchester Intl
Flight Number -
Tags generated
Created
Modified
Stats Distance 131 nm / 243 km
Max Altitude 17,400 ft / 5,304 m
Waypoints 3
Social Downloads 3
Likes 0
Share

Download

Looking for another format? Having issues loading an existing format? Contact us
Advertisement - Login to hide

Notes

Basic altitude profile: - Ascent Rate: 2500ft/min - Ascent Speed: 250kts - Cruise Altitude: 35000ft - Cruise Speed: 420kts - Descent Rate: 1500ft/min - Descent Speed: 250kts Options: - Use NATs: no - Use PACOTS: no - Use low airways: yes - Use high airways: yes

Route

EGLL DTY EGCC

ID Type Via Altitude (ft/m) Position (lat/lon) Dist (leg/tot) Name
O EGLL APT - 0 / 0 51.47120 / -0.46088 - / 0 nm London Heathrow
DTY VOR - 17,400 / 5,304 52.18010 / -1.11379 48 / 48 nm DAVENTRY
O EGCC APT - 0 / 0 53.34740 / -2.28348 81 / 130 nm Manchester Intl

Altitude Profile

Advertisement - Login to hide

EGLL

Details ICAO EGLL (LHR)
Name London Heathrow
Region United Kingdom
Timezone Europe/London (UTC+1.0)
Stats Elevation 83 ft / 25 m (AMSL)
Location 51.471200° -0.460881°
Runways 2
Magnetic Variation 0.154° W

METAR

EGLL 181650Z AUTO 06011KT 9999 NCD 20/07 Q1020 NOSIG

Decode

TAF

TAF EGLL 181053Z 1812/1918 07012KT 9999 FEW035 PROB30 TEMPO 1812/1817 07015G25KT PROB30 TEMPO 1910/1917 06015G25KT

Decode

Departure Runways

ID Width Length Bearing (true/mag) Surface Threshold Overrun Markings Lighting
09L 164 ft / 50 m 12,770 ft / 3,892 m 89.66° / 89.82° ASPHALT 1,007 ft / 307 m 0 ft / 0 m PREC-APP CENTERLINE EDGE THRESHOLD CALVERT-ILS TDZ REIL-OMNI
09R 164 ft / 50 m 11,975 ft / 3,650 m 89.68° / 89.84° ASPHALT 1,004 ft / 306 m 0 ft / 0 m PREC-APP CENTERLINE EDGE THRESHOLD CALVERT-ILS TDZ REIL-OMNI
27L 164 ft / 50 m 11,975 ft / 3,650 m 269.72° / 269.88° ASPHALT 0 ft / 0 m 95 ft / 29 m PREC-APP CENTERLINE EDGE THRESHOLD CALVERT-ILS TDZ REIL-OMNI
27R 164 ft / 50 m 12,770 ft / 3,892 m 269.70° / 269.86° ASPHALT 0 ft / 0 m 177 ft / 54 m PREC-APP CENTERLINE EDGE THRESHOLD CALVERT-ILS TDZ REIL-OMNI

EGCC

Details ICAO EGCC (MAN)
Name Manchester
Region United Kingdom
Timezone Europe/London (UTC+1.0)
Stats Elevation 257 ft / 78 m (AMSL)
Location 53.347400° -2.283480°
Runways 2
Magnetic Variation 1.028° W

METAR

EGCC 181650Z AUTO 06008KT 9999 NCD 16/08 Q1024

Decode

TAF

TAF EGCC 181054Z 1812/1918 08009KT 9999 FEW040= TAF EGKK 181058Z 1812/1918 06014KT CAVOK PROB30 TEMPO 1812/1818 07016G26KT PROB30 TEMPO 1910/1916 06015G25KT

Decode

Destination Runways

ID Width Length Bearing (true/mag) Surface Threshold Overrun Markings Lighting
05L 151 ft / 46 m 9,980 ft / 3,042 m 51.00° / 52.02° ASPHALT 1,401 ft / 427 m 0 ft / 0 m PREC-APP CENTERLINE EDGE THRESHOLD ALSF-II TDZ REIL-UNI
05R 144 ft / 44 m 10,519 ft / 3,206 m 50.98° / 52.00° ASPHALT 0 ft / 0 m 0 ft / 0 m UK-PREC-APP CENTERLINE EDGE THRESHOLD ALSF-I REIL-UNI
23L 144 ft / 44 m 10,519 ft / 3,206 m 231.00° / 232.03° ASPHALT 1,093 ft / 333 m 0 ft / 0 m UK-PREC-APP CENTERLINE EDGE THRESHOLD ALSF-I REIL-UNI
23R 151 ft / 46 m 9,980 ft / 3,042 m 231.03° / 232.05° ASPHALT 597 ft / 182 m 200 ft / 61 m PREC-APP CENTERLINE EDGE THRESHOLD ALSF-II TDZ REIL-UNI

Approach Navaids

Runway Type Ident Frequency Range Bearing (true/mag) Slope Elevation
05L DME IMM 109.50 MHz 18 nm / 33 km - - 294 ft / 90 m (AMSL)
05L LOC-ILS IMM 109.50 MHz 18 nm / 33 km 51.03° / 52.06 ° - 257 ft / 78 m (AMSL)
05L GS IMM 109.50 MHz 10 nm / 19 km 51.01° / 52.04 ° 3.00° 257 ft / 78 m (AMSL)
05R LOC-ILS IMC 111.55 MHz 18 nm / 33 km 51.01° / 52.04 ° - 257 ft / 78 m (AMSL)
05R GS IMC 111.55 MHz 10 nm / 19 km 51.97° / 53.00 ° 3.00° 257 ft / 78 m (AMSL)
05R DME IMC 111.55 MHz 18 nm / 33 km - - 212 ft / 65 m (AMSL)
23R GS INN 109.50 MHz 10 nm / 19 km 231.01° / 232.04 ° 3.00° 257 ft / 78 m (AMSL)
23R LOC-ILS INN 109.50 MHz 18 nm / 33 km 230.98° / 232.01 ° - 257 ft / 78 m (AMSL)
23R DME INN 109.50 MHz 18 nm / 33 km - - 294 ft / 90 m (AMSL)

Popular Alternatives